sensor_id;sensor_type;location;lat;lon;timestamp;pressure;altitude;pressure_sealevel;temperature;humidity
25080;BME280;13071;48.868;9.996;2023-02-10T00:01:47;98318.69;;;-4.37;81.82
25080;BME280;13071;48.868;9.996;2023-02-10T00:04:14;98320.50;;;-4.44;81.69
25080;BME280;13071;48.868;9.996;2023-02-10T00:06:40;98330.13;;;-4.58;83.30
25080;BME280;13071;48.868;9.996;2023-02-10T00:09:11;98324.25;;;-4.60;82.33
25080;BME280;13071;48.868;9.996;2023-02-10T00:11:38;98329.97;;;-4.56;82.50
25080;BME280;13071;48.868;9.996;2023-02-10T00:14:26;98338.69;;;-4.56;83.34
25080;BME280;13071;48.868;9.996;2023-02-10T00:16:54;98335.88;;;-4.54;82.33
25080;BME280;13071;48.868;9.996;2023-02-10T00:19:23;98337.06;;;-4.57;82.72
25080;BME280;13071;48.868;9.996;2023-02-10T00:21:50;98332.13;;;-4.66;82.05
25080;BME280;13071;48.868;9.996;2023-02-10T00:24:17;98327.66;;;-4.94;83.79
25080;BME280;13071;48.868;9.996;2023-02-10T00:26:43;98325.75;;;-5.21;84.35
25080;BME280;13071;48.868;9.996;2023-02-10T00:29:10;98332.00;;;-5.29;85.08
25080;BME280;13071;48.868;9.996;2023-02-10T00:31:37;98321.69;;;-5.24;85.67
25080;BME280;13071;48.868;9.996;2023-02-10T00:34:05;98317.47;;;-5.18;85.31
25080;BME280;13071;48.868;9.996;2023-02-10T00:36:31;98321.59;;;-5.30;86.09
25080;BME280;13071;48.868;9.996;2023-02-10T00:38:58;98324.63;;;-5.33;86.46
25080;BME280;13071;48.868;9.996;2023-02-10T00:41:24;98322.38;;;-5.15;86.62
25080;BME280;13071;48.868;9.996;2023-02-10T00:43:51;98330.91;;;-5.13;86.44
25080;BME280;13071;48.868;9.996;2023-02-10T00:46:19;98325.94;;;-5.01;85.91
25080;BME280;13071;48.868;9.996;2023-02-10T00:48:46;98327.88;;;-4.89;85.30
25080;BME280;13071;48.868;9.996;2023-02-10T00:51:15;98328.38;;;-4.78;85.15
25080;BME280;13071;48.868;9.996;2023-02-10T00:53:42;98326.25;;;-4.62;83.57
25080;BME280;13071;48.868;9.996;2023-02-10T00:56:09;98333.69;;;-4.72;84.25
25080;BME280;13071;48.868;9.996;2023-02-10T00:58:37;98338.41;;;-4.67;83.20
25080;BME280;13071;48.868;9.996;2023-02-10T01:01:03;98333.50;;;-4.70;83.33
25080;BME280;13071;48.868;9.996;2023-02-10T01:03:30;98343.69;;;-4.67;83.46
25080;BME280;13071;48.868;9.996;2023-02-10T01:05:57;98348.16;;;-4.68;84.06
25080;BME280;13071;48.868;9.996;2023-02-10T01:08:25;98355.31;;;-4.62;84.11
25080;BME280;13071;48.868;9.996;2023-02-10T01:10:58;98350.91;;;-4.55;84.58
25080;BME280;13071;48.868;9.996;2023-02-10T01:13:24;98362.16;;;-4.46;83.63
25080;BME280;13071;48.868;9.996;2023-02-10T01:15:51;98352.97;;;-4.50;83.66
25080;BME280;13071;48.868;9.996;2023-02-10T01:18:18;98359.91;;;-4.49;83.56
25080;BME280;13071;48.868;9.996;2023-02-10T01:20:44;98354.03;;;-4.45;83.25
25080;BME280;13071;48.868;9.996;2023-02-10T01:23:11;98360.91;;;-4.50;84.08
25080;BME280;13071;48.868;9.996;2023-02-10T01:25:39;98349.69;;;-4.52;83.83
25080;BME280;13071;48.868;9.996;2023-02-10T01:28:06;98351.72;;;-4.54;83.85
25080;BME280;13071;48.868;9.996;2023-02-10T01:30:32;98347.44;;;-4.55;83.59
25080;BME280;13071;48.868;9.996;2023-02-10T01:32:59;98352.09;;;-4.57;83.78
25080;BME280;13071;48.868;9.996;2023-02-10T01:35:26;98339.31;;;-4.54;83.46
25080;BME280;13071;48.868;9.996;2023-02-10T01:37:52;98350.34;;;-4.50;83.81
25080;BME280;13071;48.868;9.996;2023-02-10T01:40:20;98340.13;;;-4.53;84.23
25080;BME280;13071;48.868;9.996;2023-02-10T01:42:48;98351.53;;;-4.53;84.19
25080;BME280;13071;48.868;9.996;2023-02-10T01:45:18;98341.66;;;-4.44;84.58
25080;BME280;13071;48.868;9.996;2023-02-10T01:47:47;98346.06;;;-4.51;85.00
25080;BME280;13071;48.868;9.996;2023-02-10T01:50:15;98343.16;;;-4.56;83.99
25080;BME280;13071;48.868;9.996;2023-02-10T01:52:44;98339.84;;;-4.65;84.57
25080;BME280;13071;48.868;9.996;2023-02-10T01:55:12;98338.16;;;-4.72;84.04
25080;BME280;13071;48.868;9.996;2023-02-10T01:57:43;98336.91;;;-4.76;83.47
25080;BME280;13071;48.868;9.996;2023-02-10T02:00:13;98340.94;;;-4.81;83.58
25080;BME280;13071;48.868;9.996;2023-02-10T02:02:40;98341.38;;;-4.77;84.02
25080;BME280;13071;48.868;9.996;2023-02-10T02:05:19;98337.81;;;-4.91;83.33
25080;BME280;13071;48.868;9.996;2023-02-10T02:07:46;98331.31;;;-4.88;83.27
25080;BME280;13071;48.868;9.996;2023-02-10T02:10:13;98342.91;;;-4.89;82.88
25080;BME280;13071;48.868;9.996;2023-02-10T02:12:44;98340.06;;;-4.88;83.94
25080;BME280;13071;48.868;9.996;2023-02-10T02:15:18;98340.06;;;-4.88;84.37
25080;BME280;13071;48.868;9.996;2023-02-10T02:17:51;98335.25;;;-4.84;83.81
25080;BME280;13071;48.868;9.996;2023-02-10T02:20:45;98344.53;;;-4.88;83.68
25080;BME280;13071;48.868;9.996;2023-02-10T02:26:36;98341.22;;;-4.97;82.80
25080;BME280;13071;48.868;9.996;2023-02-10T02:29:21;98345.63;;;-5.04;83.50
25080;BME280;13071;48.868;9.996;2023-02-10T02:32:04;98349.63;;;-5.08;83.80
25080;BME280;13071;48.868;9.996;2023-02-10T02:34:37;98353.09;;;-5.07;83.75
25080;BME280;13071;48.868;9.996;2023-02-10T02:37:10;98351.09;;;-5.05;83.28
25080;BME280;13071;48.868;9.996;2023-02-10T02:39:40;98347.81;;;-5.07;82.86
25080;BME280;13071;48.868;9.996;2023-02-10T02:42:15;98354.91;;;-5.29;82.08
25080;BME280;13071;48.868;9.996;2023-02-10T02:44:42;98350.22;;;-5.34;82.88
25080;BME280;13071;48.868;9.996;2023-02-10T02:47:17;98355.53;;;-5.48;82.62
25080;BME280;13071;48.868;9.996;2023-02-10T02:49:52;98368.16;;;-5.23;82.34
25080;BME280;13071;48.868;9.996;2023-02-10T02:52:26;98368.03;;;-5.36;81.85
25080;BME280;13071;48.868;9.996;2023-02-10T02:54:59;98380.34;;;-5.43;82.43
25080;BME280;13071;48.868;9.996;2023-02-10T02:57:33;98372.44;;;-5.43;82.70
25080;BME280;13071;48.868;9.996;2023-02-10T03:00:08;98375.88;;;-5.42;81.51
25080;BME280;13071;48.868;9.996;2023-02-10T03:02:38;98379.50;;;-5.29;82.86
25080;BME280;13071;48.868;9.996;2023-02-10T03:05:07;98378.41;;;-5.34;82.12
25080;BME280;13071;48.868;9.996;2023-02-10T03:07:33;98371.88;;;-5.38;82.78
25080;BME280;13071;48.868;9.996;2023-02-10T03:10:00;98374.88;;;-5.41;83.68
25080;BME280;13071;48.868;9.996;2023-02-10T03:12:26;98379.78;;;-5.38;85.25
25080;BME280;13071;48.868;9.996;2023-02-10T03:14:53;98377.94;;;-5.38;84.83
25080;BME280;13071;48.868;9.996;2023-02-10T03:17:20;98379.44;;;-5.50;83.79
25080;BME280;13071;48.868;9.996;2023-02-10T03:19:48;98380.28;;;-5.49;84.34
25080;BME280;13071;48.868;9.996;2023-02-10T03:22:14;98388.72;;;-5.39;84.13
25080;BME280;13071;48.868;9.996;2023-02-10T03:24:41;98383.78;;;-5.42;83.99
25080;BME280;13071;48.868;9.996;2023-02-10T03:27:07;98380.88;;;-5.47;84.79
25080;BME280;13071;48.868;9.996;2023-02-10T03:29:34;98374.44;;;-5.45;84.86
25080;BME280;13071;48.868;9.996;2023-02-10T03:32:00;98377.84;;;-5.66;84.56
25080;BME280;13071;48.868;9.996;2023-02-10T03:34:28;98378.47;;;-5.63;85.27
25080;BME280;13071;48.868;9.996;2023-02-10T03:36:56;98381.19;;;-5.72;85.40
25080;BME280;13071;48.868;9.996;2023-02-10T03:39:23;98380.38;;;-5.72;85.84
25080;BME280;13071;48.868;9.996;2023-02-10T03:41:50;98388.69;;;-5.75;85.44
25080;BME280;13071;48.868;9.996;2023-02-10T03:44:18;98394.94;;;-5.61;85.63
25080;BME280;13071;48.868;9.996;2023-02-10T03:46:45;98396.56;;;-5.60;84.94
25080;BME280;13071;48.868;9.996;2023-02-10T03:49:11;98393.94;;;-5.60;84.18
25080;BME280;13071;48.868;9.996;2023-02-10T03:51:38;98385.94;;;-5.67;84.37
25080;BME280;13071;48.868;9.996;2023-02-10T03:54:06;98388.41;;;-5.80;85.26
25080;BME280;13071;48.868;9.996;2023-02-10T03:56:33;98390.38;;;-6.03;87.25
25080;BME280;13071;48.868;9.996;2023-02-10T03:59:00;98388.63;;;-6.11;86.84
25080;BME280;13071;48.868;9.996;2023-02-10T04:01:26;98387.00;;;-5.97;87.58
25080;BME280;13071;48.868;9.996;2023-02-10T04:03:53;98389.16;;;-6.01;87.69
25080;BME280;13071;48.868;9.996;2023-02-10T04:06:19;98390.22;;;-5.81;88.40
25080;BME280;13071;48.868;9.996;2023-02-10T04:08:46;98395.13;;;-5.63;87.53
25080;BME280;13071;48.868;9.996;2023-02-10T04:11:14;98399.66;;;-5.57;87.53
25080;BME280;13071;48.868;9.996;2023-02-10T04:13:41;98403.09;;;-5.56;86.87
25080;BME280;13071;48.868;9.996;2023-02-10T04:16:10;98413.56;;;-5.48;87.18
25080;BME280;13071;48.868;9.996;2023-02-10T04:18:38;98404.91;;;-5.42;86.25
25080;BME280;13071;48.868;9.996;2023-02-10T04:21:06;98401.09;;;-5.40;86.18
25080;BME280;13071;48.868;9.996;2023-02-10T04:23:32;98400.97;;;-5.32;86.30
25080;BME280;13071;48.868;9.996;2023-02-10T04:25:59;98398.97;;;-5.30;86.64
25080;BME280;13071;48.868;9.996;2023-02-10T04:28:27;98396.69;;;-5.33;86.91
25080;BME280;13071;48.868;9.996;2023-02-10T04:30:55;98402.44;;;-5.29;86.15
25080;BME280;13071;48.868;9.996;2023-02-10T04:33:23;98398.31;;;-5.32;86.53
25080;BME280;13071;48.868;9.996;2023-02-10T04:35:51;98399.97;;;-5.31;87.04
25080;BME280;13071;48.868;9.996;2023-02-10T04:38:17;98405.81;;;-5.35;86.80
25080;BME280;13071;48.868;9.996;2023-02-10T04:40:44;98405.16;;;-5.37;86.29
25080;BME280;13071;48.868;9.996;2023-02-10T04:43:11;98405.63;;;-5.34;85.85
25080;BME280;13071;48.868;9.996;2023-02-10T04:45:40;98413.34;;;-5.32;86.32
25080;BME280;13071;48.868;9.996;2023-02-10T04:48:06;98406.25;;;-5.32;86.08
25080;BME280;13071;48.868;9.996;2023-02-10T04:50:35;98413.59;;;-5.27;84.85
25080;BME280;13071;48.868;9.996;2023-02-10T04:53:02;98419.19;;;-5.37;86.26
25080;BME280;13071;48.868;9.996;2023-02-10T04:55:29;98415.91;;;-5.39;85.33
25080;BME280;13071;48.868;9.996;2023-02-10T04:57:55;98415.38;;;-5.34;86.24
25080;BME280;13071;48.868;9.996;2023-02-10T05:00:22;98423.63;;;-5.37;85.87
25080;BME280;13071;48.868;9.996;2023-02-10T05:02:50;98422.31;;;-5.48;85.91
25080;BME280;13071;48.868;9.996;2023-02-10T05:05:17;98430.50;;;-5.43;84.72
25080;BME280;13071;48.868;9.996;2023-02-10T05:07:44;98434.41;;;-5.53;84.41
25080;BME280;13071;48.868;9.996;2023-02-10T05:10:10;98437.50;;;-5.50;84.98
25080;BME280;13071;48.868;9.996;2023-02-10T05:12:37;98441.22;;;-5.44;84.08
25080;BME280;13071;48.868;9.996;2023-02-10T05:15:04;98434.84;;;-5.50;83.76
25080;BME280;13071;48.868;9.996;2023-02-10T05:17:33;98437.06;;;-5.53;83.33
25080;BME280;13071;48.868;9.996;2023-02-10T05:20:01;98440.41;;;-5.59;84.65
25080;BME280;13071;48.868;9.996;2023-02-10T05:22:27;98450.25;;;-5.53;84.83
25080;BME280;13071;48.868;9.996;2023-02-10T05:24:55;98448.78;;;-5.56;84.01
25080;BME280;13071;48.868;9.996;2023-02-10T05:27:22;98446.59;;;-5.67;84.05
25080;BME280;13071;48.868;9.996;2023-02-10T05:29:48;98444.16;;;-5.69;85.10
25080;BME280;13071;48.868;9.996;2023-02-10T05:32:15;98451.69;;;-5.66;85.23
25080;BME280;13071;48.868;9.996;2023-02-10T05:34:42;98448.50;;;-5.61;85.12
25080;BME280;13071;48.868;9.996;2023-02-10T05:37:10;98454.22;;;-5.57;84.89
25080;BME280;13071;48.868;9.996;2023-02-10T05:39:36;98460.81;;;-5.53;84.11
25080;BME280;13071;48.868;9.996;2023-02-10T05:42:03;98464.78;;;-5.57;84.56
25080;BME280;13071;48.868;9.996;2023-02-10T05:44:29;98460.88;;;-5.61;84.99
25080;BME280;13071;48.868;9.996;2023-02-10T05:46:57;98461.00;;;-5.99;85.24
25080;BME280;13071;48.868;9.996;2023-02-10T05:49:24;98449.53;;;-6.06;86.08
25080;BME280;13071;48.868;9.996;2023-02-10T05:51:51;98456.56;;;-5.98;85.79
25080;BME280;13071;48.868;9.996;2023-02-10T05:54:19;98458.34;;;-5.84;85.93
25080;BME280;13071;48.868;9.996;2023-02-10T05:56:46;98465.50;;;-6.37;87.13
25080;BME280;13071;48.868;9.996;2023-02-10T05:59:14;98459.44;;;-6.23;88.13
25080;BME280;13071;48.868;9.996;2023-02-10T06:01:41;98462.41;;;-6.26;88.33
25080;BME280;13071;48.868;9.996;2023-02-10T06:04:08;98461.59;;;-6.12;88.48
25080;BME280;13071;48.868;9.996;2023-02-10T06:06:34;98465.88;;;-6.11;88.48
25080;BME280;13071;48.868;9.996;2023-02-10T06:09:01;98472.16;;;-5.97;88.07
25080;BME280;13071;48.868;9.996;2023-02-10T06:11:29;98479.28;;;-5.83;87.08
25080;BME280;13071;48.868;9.996;2023-02-10T06:13:55;98481.09;;;-5.83;87.56
25080;BME280;13071;48.868;9.996;2023-02-10T06:16:22;98477.69;;;-5.77;86.69
25080;BME280;13071;48.868;9.996;2023-02-10T06:18:49;98490.09;;;-5.78;87.24
25080;BME280;13071;48.868;9.996;2023-02-10T06:21:15;98491.25;;;-5.66;86.83
25080;BME280;13071;48.868;9.996;2023-02-10T06:23:42;98488.25;;;-5.77;86.94
25080;BME280;13071;48.868;9.996;2023-02-10T06:26:09;98484.00;;;-5.78;86.95
25080;BME280;13071;48.868;9.996;2023-02-10T06:28:37;98483.19;;;-5.64;87.58
25080;BME280;13071;48.868;9.996;2023-02-10T06:31:04;98486.53;;;-5.55;86.78
25080;BME280;13071;48.868;9.996;2023-02-10T06:33:32;98482.72;;;-5.53;86.16
25080;BME280;13071;48.868;9.996;2023-02-10T06:36:00;98486.00;;;-5.51;86.34
25080;BME280;13071;48.868;9.996;2023-02-10T06:38:29;98495.44;;;-5.56;85.94
25080;BME280;13071;48.868;9.996;2023-02-10T06:40:55;98493.00;;;-5.43;86.97
25080;BME280;13071;48.868;9.996;2023-02-10T06:43:22;98506.81;;;-5.41;86.62
25080;BME280;13071;48.868;9.996;2023-02-10T06:45:50;98501.47;;;-5.33;86.74
25080;BME280;13071;48.868;9.996;2023-02-10T06:48:16;98510.00;;;-5.31;87.20
25080;BME280;13071;48.868;9.996;2023-02-10T06:50:43;98515.94;;;-5.29;86.89
25080;BME280;13071;48.868;9.996;2023-02-10T06:53:09;98530.13;;;-5.30;86.66
25080;BME280;13071;48.868;9.996;2023-02-10T06:55:36;98532.75;;;-5.30;87.19
25080;BME280;13071;48.868;9.996;2023-02-10T06:58:03;98533.56;;;-5.30;86.57
25080;BME280;13071;48.868;9.996;2023-02-10T07:00:31;98524.00;;;-5.16;86.48
25080;BME280;13071;48.868;9.996;2023-02-10T07:02:59;98526.72;;;-5.09;86.60
25080;BME280;13071;48.868;9.996;2023-02-10T07:05:26;98533.19;;;-5.12;86.07
25080;BME280;13071;48.868;9.996;2023-02-10T07:07:53;98534.56;;;-5.16;86.09
25080;BME280;13071;48.868;9.996;2023-02-10T07:10:20;98537.66;;;-5.12;85.78
25080;BME280;13071;48.868;9.996;2023-02-10T07:12:46;98541.09;;;-5.12;85.17
25080;BME280;13071;48.868;9.996;2023-02-10T07:15:13;98540.25;;;-4.98;85.20
25080;BME280;13071;48.868;9.996;2023-02-10T07:17:42;98542.72;;;-4.96;84.62
25080;BME280;13071;48.868;9.996;2023-02-10T07:20:11;98538.66;;;-4.99;84.48
25080;BME280;13071;48.868;9.996;2023-02-10T07:22:37;98539.72;;;-4.93;83.54
25080;BME280;13071;48.868;9.996;2023-02-10T07:25:04;98532.53;;;-4.85;83.77
25080;BME280;13071;48.868;9.996;2023-02-10T07:27:31;98542.09;;;-4.84;83.04
25080;BME280;13071;48.868;9.996;2023-02-10T07:29:58;98543.78;;;-4.76;84.22
25080;BME280;13071;48.868;9.996;2023-02-10T07:32:24;98544.22;;;-4.72;84.50
25080;BME280;13071;48.868;9.996;2023-02-10T07:34:51;98554.13;;;-4.60;83.68
25080;BME280;13071;48.868;9.996;2023-02-10T07:37:19;98560.41;;;-4.61;83.79
25080;BME280;13071;48.868;9.996;2023-02-10T07:39:45;98544.25;;;-4.51;85.37
25080;BME280;13071;48.868;9.996;2023-02-10T07:42:12;98558.59;;;-4.60;85.16
25080;BME280;13071;48.868;9.996;2023-02-10T07:44:38;98554.06;;;-4.66;87.14
25080;BME280;13071;48.868;9.996;2023-02-10T07:47:05;98570.38;;;-4.78;87.69
25080;BME280;13071;48.868;9.996;2023-02-10T07:49:32;98562.88;;;-4.59;89.33
25080;BME280;13071;48.868;9.996;2023-02-10T07:51:58;98571.38;;;-4.43;88.90
25080;BME280;13071;48.868;9.996;2023-02-10T07:54:26;98565.13;;;-4.20;87.67
25080;BME280;13071;48.868;9.996;2023-02-10T07:56:53;98565.66;;;-4.04;87.56
25080;BME280;13071;48.868;9.996;2023-02-10T07:59:19;98556.53;;;-4.22;88.41
25080;BME280;13071;48.868;9.996;2023-02-10T08:01:46;98560.44;;;-4.18;89.41
25080;BME280;13071;48.868;9.996;2023-02-10T08:04:13;98563.41;;;-4.07;89.68
25080;BME280;13071;48.868;9.996;2023-02-10T08:06:39;98559.28;;;-3.88;89.35
25080;BME280;13071;48.868;9.996;2023-02-10T08:09:07;98555.44;;;-3.58;87.60
25080;BME280;13071;48.868;9.996;2023-02-10T08:11:35;98547.53;;;-3.85;88.81
25080;BME280;13071;48.868;9.996;2023-02-10T08:14:02;98542.69;;;-4.03;91.24
25080;BME280;13071;48.868;9.996;2023-02-10T08:16:30;98542.75;;;-3.97;92.23
25080;BME280;13071;48.868;9.996;2023-02-10T08:18:56;98543.41;;;-3.88;92.57
25080;BME280;13071;48.868;9.996;2023-02-10T08:21:23;98552.41;;;-3.82;93.17
25080;BME280;13071;48.868;9.996;2023-02-10T08:23:51;98551.22;;;-3.80;93.31
25080;BME280;13071;48.868;9.996;2023-02-10T08:26:20;98546.78;;;-3.73;94.16
25080;BME280;13071;48.868;9.996;2023-02-10T08:28:49;98555.94;;;-3.47;93.54
25080;BME280;13071;48.868;9.996;2023-02-10T08:31:16;98557.88;;;-3.28;92.88
25080;BME280;13071;48.868;9.996;2023-02-10T08:33:43;98564.69;;;-3.13;92.35
25080;BME280;13071;48.868;9.996;2023-02-10T08:36:12;98559.09;;;-2.96;91.17
25080;BME280;13071;48.868;9.996;2023-02-10T08:38:39;98562.78;;;-2.84;90.47
25080;BME280;13071;48.868;9.996;2023-02-10T08:41:06;98560.78;;;-2.76;89.80
25080;BME280;13071;48.868;9.996;2023-02-10T08:43:33;98576.31;;;-2.66;89.95
25080;BME280;13071;48.868;9.996;2023-02-10T08:46:01;98570.22;;;-2.60;89.60
25080;BME280;13071;48.868;9.996;2023-02-10T08:48:28;98578.81;;;-2.51;89.01
25080;BME280;13071;48.868;9.996;2023-02-10T08:50:55;98574.38;;;-2.38;88.95
25080;BME280;13071;48.868;9.996;2023-02-10T08:53:22;98571.34;;;-2.28;88.13
25080;BME280;13071;48.868;9.996;2023-02-10T08:55:55;98580.53;;;-2.24;88.30
25080;BME280;13071;48.868;9.996;2023-02-10T08:58:22;98584.41;;;-2.20;88.25
25080;BME280;13071;48.868;9.996;2023-02-10T09:00:49;98581.78;;;-2.07;87.97
25080;BME280;13071;48.868;9.996;2023-02-10T09:03:17;98573.44;;;-1.78;86.35
25080;BME280;13071;48.868;9.996;2023-02-10T09:05:43;98570.59;;;-1.69;85.67
25080;BME280;13071;48.868;9.996;2023-02-10T09:08:11;98563.63;;;-1.57;86.03
25080;BME280;13071;48.868;9.996;2023-02-10T09:10:38;98562.19;;;-1.47;85.38
25080;BME280;13071;48.868;9.996;2023-02-10T09:13:05;98557.28;;;-1.37;85.69
25080;BME280;13071;48.868;9.996;2023-02-10T09:15:34;98563.81;;;-1.33;85.65
25080;BME280;13071;48.868;9.996;2023-02-10T09:18:02;98563.84;;;-1.46;86.30
25080;BME280;13071;48.868;9.996;2023-02-10T09:20:30;98563.41;;;-1.36;85.72
25080;BME280;13071;48.868;9.996;2023-02-10T09:22:57;98558.69;;;-1.14;86.44
25080;BME280;13071;48.868;9.996;2023-02-10T09:25:23;98562.78;;;-1.25;86.97
25080;BME280;13071;48.868;9.996;2023-02-10T09:27:51;98570.09;;;-1.07;85.41
25080;BME280;13071;48.868;9.996;2023-02-10T09:30:19;98558.78;;;-0.83;84.77
25080;BME280;13071;48.868;9.996;2023-02-10T09:32:46;98568.19;;;-0.80;83.70
25080;BME280;13071;48.868;9.996;2023-02-10T09:35:13;98559.19;;;-0.86;83.73
25080;BME280;13071;48.868;9.996;2023-02-10T09:37:41;98558.06;;;-0.59;83.25
25080;BME280;13071;48.868;9.996;2023-02-10T09:40:11;98562.19;;;-0.63;82.56
25080;BME280;13071;48.868;9.996;2023-02-10T09:42:52;98567.50;;;-0.63;82.93
25080;BME280;13071;48.868;9.996;2023-02-10T09:45:25;98562.72;;;-0.48;82.76
25080;BME280;13071;48.868;9.996;2023-02-10T09:47:56;98567.28;;;-0.23;83.18
25080;BME280;13071;48.868;9.996;2023-02-10T09:50:45;98559.28;;;-0.17;83.28
25080;BME280;13071;48.868;9.996;2023-02-10T09:53:19;98565.81;;;-0.13;83.07
25080;BME280;13071;48.868;9.996;2023-02-10T09:55:49;98569.13;;;-0.24;83.80
25080;BME280;13071;48.868;9.996;2023-02-10T09:58:21;98563.81;;;0.08;82.75
25080;BME280;13071;48.868;9.996;2023-02-10T10:00:55;98568.72;;;0.11;80.91
25080;BME280;13071;48.868;9.996;2023-02-10T10:03:26;98568.63;;;0.24;80.03
25080;BME280;13071;48.868;9.996;2023-02-10T10:06:03;98573.50;;;0.27;78.55
25080;BME280;13071;48.868;9.996;2023-02-10T10:08:42;98580.69;;;0.26;78.92
25080;BME280;13071;48.868;9.996;2023-02-10T10:11:23;98576.88;;;0.40;78.67
25080;BME280;13071;48.868;9.996;2023-02-10T10:13:50;98574.94;;;0.54;77.91
25080;BME280;13071;48.868;9.996;2023-02-10T10:16:24;98576.63;;;0.49;78.05
25080;BME280;13071;48.868;9.996;2023-02-10T10:19:03;98583.69;;;0.61;78.48
25080;BME280;13071;48.868;9.996;2023-02-10T10:21:43;98582.19;;;0.65;78.32
25080;BME280;13071;48.868;9.996;2023-02-10T10:24:33;98581.38;;;0.65;77.04
25080;BME280;13071;48.868;9.996;2023-02-10T10:27:15;98579.69;;;0.70;76.92
25080;BME280;13071;48.868;9.996;2023-02-10T10:29:49;98573.66;;;1.00;76.24
25080;BME280;13071;48.868;9.996;2023-02-10T10:32:28;98569.38;;;0.99;76.55
25080;BME280;13071;48.868;9.996;2023-02-10T10:35:00;98567.81;;;1.09;75.41
25080;BME280;13071;48.868;9.996;2023-02-10T10:37:27;98565.28;;;1.14;75.42
25080;BME280;13071;48.868;9.996;2023-02-10T10:40:00;98559.09;;;1.02;75.52
25080;BME280;13071;48.868;9.996;2023-02-10T10:42:39;98557.84;;;1.23;76.15
25080;BME280;13071;48.868;9.996;2023-02-10T10:45:11;98551.97;;;1.33;75.93
25080;BME280;13071;48.868;9.996;2023-02-10T10:47:43;98550.66;;;1.53;75.08
25080;BME280;13071;48.868;9.996;2023-02-10T10:50:14;98555.72;;;1.43;74.54
25080;BME280;13071;48.868;9.996;2023-02-10T10:52:43;98549.31;;;1.33;73.97
25080;BME280;13071;48.868;9.996;2023-02-10T10:55:16;98555.47;;;1.33;73.81
25080;BME280;13071;48.868;9.996;2023-02-10T10:57:44;98557.72;;;1.29;73.33
25080;BME280;13071;48.868;9.996;2023-02-10T11:00:18;98557.66;;;1.36;73.61
25080;BME280;13071;48.868;9.996;2023-02-10T11:02:56;98551.63;;;1.59;72.62
25080;BME280;13071;48.868;9.996;2023-02-10T11:05:27;98553.84;;;1.62;72.39
25080;BME280;13071;48.868;9.996;2023-02-10T11:07:55;98550.59;;;1.60;72.66
25080;BME280;13071;48.868;9.996;2023-02-10T11:10:26;98551.94;;;1.51;73.16
25080;BME280;13071;48.868;9.996;2023-02-10T11:12:55;98543.75;;;1.64;71.75
25080;BME280;13071;48.868;9.996;2023-02-10T11:15:34;98544.50;;;1.71;71.82
25080;BME280;13071;48.868;9.996;2023-02-10T11:18:05;98544.00;;;1.92;71.48
25080;BME280;13071;48.868;9.996;2023-02-10T11:20:35;98542.44;;;1.85;71.33
25080;BME280;13071;48.868;9.996;2023-02-10T11:23:04;98547.44;;;1.93;70.51
25080;BME280;13071;48.868;9.996;2023-02-10T11:25:34;98539.13;;;2.12;69.97
25080;BME280;13071;48.868;9.996;2023-02-10T11:28:03;98543.16;;;1.92;71.50
25080;BME280;13071;48.868;9.996;2023-02-10T11:30:32;98539.72;;;1.73;70.78
25080;BME280;13071;48.868;9.996;2023-02-10T11:33:00;98532.34;;;1.87;70.90
25080;BME280;13071;48.868;9.996;2023-02-10T11:35:28;98536.91;;;1.98;69.97
25080;BME280;13071;48.868;9.996;2023-02-10T11:38:00;98536.41;;;1.89;70.52
25080;BME280;13071;48.868;9.996;2023-02-10T11:40:30;98532.16;;;2.00;70.61
25080;BME280;13071;48.868;9.996;2023-02-10T11:43:00;98534.72;;;2.18;69.97
25080;BME280;13071;48.868;9.996;2023-02-10T11:45:28;98528.31;;;1.96;70.09
25080;BME280;13071;48.868;9.996;2023-02-10T11:48:03;98523.72;;;2.14;70.78
25080;BME280;13071;48.868;9.996;2023-02-10T11:50:32;98519.78;;;2.29;71.08
25080;BME280;13071;48.868;9.996;2023-02-10T11:52:59;98513.50;;;2.35;69.55
25080;BME280;13071;48.868;9.996;2023-02-10T11:55:33;98509.34;;;2.50;68.53
25080;BME280;13071;48.868;9.996;2023-02-10T11:58:22;98510.03;;;2.57;68.19
25080;BME280;13071;48.868;9.996;2023-02-10T12:01:15;98512.69;;;2.57;67.40
25080;BME280;13071;48.868;9.996;2023-02-10T12:03:56;98512.38;;;2.66;67.59
25080;BME280;13071;48.868;9.996;2023-02-10T12:06:30;98501.91;;;2.76;67.51
25080;BME280;13071;48.868;9.996;2023-02-10T12:09:04;98502.78;;;2.93;66.95
25080;BME280;13071;48.868;9.996;2023-02-10T12:11:39;98508.84;;;2.88;66.69
25080;BME280;13071;48.868;9.996;2023-02-10T12:17:25;98503.13;;;2.96;65.14
25080;BME280;13071;48.868;9.996;2023-02-10T12:20:02;98498.84;;;2.95;65.56
25080;BME280;13071;48.868;9.996;2023-02-10T12:22:42;98504.41;;;2.94;64.54
25080;BME280;13071;48.868;9.996;2023-02-10T12:25:16;98498.47;;;3.03;64.88
25080;BME280;13071;48.868;9.996;2023-02-10T12:27:57;98503.50;;;2.88;64.45
25080;BME280;13071;48.868;9.996;2023-02-10T12:30:34;98499.44;;;2.74;65.22
25080;BME280;13071;48.868;9.996;2023-02-10T12:33:24;98500.47;;;2.61;66.18
25080;BME280;13071;48.868;9.996;2023-02-10T12:36:03;98496.78;;;2.74;66.38
25080;BME280;13071;48.868;9.996;2023-02-10T12:38:47;98494.47;;;2.54;66.73
25080;BME280;13071;48.868;9.996;2023-02-10T12:41:23;98491.91;;;2.36;68.35
25080;BME280;13071;48.868;9.996;2023-02-10T12:44:10;98488.88;;;2.56;68.81
25080;BME280;13071;48.868;9.996;2023-02-10T12:46:46;98482.09;;;2.77;68.22
25080;BME280;13071;48.868;9.996;2023-02-10T12:49:28;98479.19;;;2.90;67.01
25080;BME280;13071;48.868;9.996;2023-02-10T12:52:02;98466.47;;;3.09;67.65
25080;BME280;13071;48.868;9.996;2023-02-10T12:54:35;98473.75;;;3.25;66.45
25080;BME280;13071;48.868;9.996;2023-02-10T12:57:06;98467.50;;;3.19;64.71
25080;BME280;13071;48.868;9.996;2023-02-10T12:59:39;98464.50;;;3.16;65.71
25080;BME280;13071;48.868;9.996;2023-02-10T13:02:14;98469.97;;;3.09;67.41
25080;BME280;13071;48.868;9.996;2023-02-10T13:04:46;98467.50;;;3.08;65.66
25080;BME280;13071;48.868;9.996;2023-02-10T13:07:20;98474.22;;;3.22;65.74
25080;BME280;13071;48.868;9.996;2023-02-10T13:09:55;98472.75;;;3.42;64.53
25080;BME280;13071;48.868;9.996;2023-02-10T13:12:25;98468.84;;;3.33;64.12
25080;BME280;13071;48.868;9.996;2023-02-10T13:14:59;98472.91;;;3.64;64.66
25080;BME280;13071;48.868;9.996;2023-02-10T13:17:36;98466.69;;;3.19;65.60
25080;BME280;13071;48.868;9.996;2023-02-10T13:20:21;98466.53;;;3.54;64.08
25080;BME280;13071;48.868;9.996;2023-02-10T13:22:53;98463.78;;;3.48;64.09